Time;durP1;ratioP1;P1;durP2;ratioP2;P2;SDS_P1;SDS_P2;PMS_P1;PMS_P2;Temp;Humidity;BMP_temperature;BMP_pressure;BME280_temperature;BME280_humidity;BME280_pressure;Samples;Min_cycle;Max_cycle;Signal;HPM_P1;HPM_P2
2023/01/28 00:00:53;;;;;;;16.70;8.75;;;;;;;-146.73;100.00;56421.06;6154830;23;20043;-93
2023/01/28 00:03:19;;;;;;;18.83;9.13;;;;;;;-146.73;100.00;56421.06;6154812;23;20036;-93
2023/01/28 00:05:44;;;;;;;18.33;8.80;;;;;;;-146.73;100.00;56421.06;6154828;23;20427;-92
2023/01/28 00:08:11;;;;;;;17.95;9.65;;;;;;;-146.73;100.00;56421.06;6156047;23;20009;-93
2023/01/28 00:10:40;;;;;;;19.73;9.63;;;;;;;-146.73;100.00;56421.06;6182049;23;20013;-92
2023/01/28 00:13:06;;;;;;;18.75;8.80;;;;;;;-146.73;100.00;56421.06;6156582;23;20020;-93
2023/01/28 00:15:31;;;;;;;18.55;8.77;;;;;;;-146.73;100.00;56421.06;6155476;23;20474;-94
2023/01/28 00:17:59;;;;;;;17.52;8.35;;;;;;;-146.73;100.00;56421.06;6155058;23;20005;-93
2023/01/28 00:20:24;;;;;;;16.63;7.88;;;;;;;-146.73;100.00;56421.06;6152114;23;20017;-93
2023/01/28 00:22:50;;;;;;;16.92;8.27;;;;;;;-146.73;100.00;56421.06;6177036;23;20001;-94
2023/01/28 00:25:15;;;;;;;17.67;8.82;;;;;;;-146.73;100.00;56421.06;6150540;23;20024;-93
2023/01/28 00:27:41;;;;;;;18.80;8.63;;;;;;;-146.73;100.00;56421.06;6150861;23;20035;-92
2023/01/28 00:30:07;;;;;;;17.40;8.52;;;;;;;-146.73;100.00;56421.06;6180503;23;20005;-94
2023/01/28 00:32:33;;;;;;;19.90;8.57;;;;;;;-146.73;100.00;56421.06;6153411;23;20016;-93
2023/01/28 00:34:58;;;;;;;18.58;8.68;;;;;;;-146.73;100.00;56421.06;6152737;23;20546;-93
2023/01/28 00:37:24;;;;;;;18.08;8.80;;;;;;;-146.73;100.00;56421.06;6151060;23;20424;-93
2023/01/28 00:39:52;;;;;;;21.05;10.18;;;;;;;-146.73;100.00;56421.06;6152645;23;20017;-93
2023/01/28 00:42:18;;;;;;;21.08;10.88;;;;;;;-146.73;100.00;56421.06;6180879;23;20082;-93
2023/01/28 00:44:43;;;;;;;20.90;9.90;;;;;;;-146.73;100.00;56421.06;6153663;23;20419;-94
2023/01/28 00:47:09;;;;;;;19.58;10.10;;;;;;;-146.73;100.00;56421.06;6180275;23;20044;-93
2023/01/28 00:49:34;;;;;;;17.40;9.23;;;;;;;-146.73;100.00;56421.06;6153809;23;20431;-92
2023/01/28 00:52:02;;;;;;;16.48;8.38;;;;;;;-146.73;100.00;56421.06;6154851;23;20021;-94
2023/01/28 00:54:28;;;;;;;15.50;7.68;;;;;;;-146.73;100.00;56421.06;6154465;23;20084;-92
2023/01/28 00:56:54;;;;;;;13.73;7.00;;;;;;;-146.73;100.00;56421.06;6152550;23;20410;-91
2023/01/28 00:59:19;;;;;;;17.92;7.25;;;;;;;-146.73;100.00;56421.06;6152346;23;20009;-93
2023/01/28 01:01:46;;;;;;;15.35;6.95;;;;;;;-146.73;100.00;56421.06;6152565;23;20009;-92
2023/01/28 01:04:12;;;;;;;14.85;6.43;;;;;;;-146.73;100.00;56421.06;6152009;23;20028;-92
2023/01/28 01:06:39;;;;;;;11.57;5.25;;;;;;;-146.73;100.00;56421.06;6178657;23;20001;-93
2023/01/28 01:09:07;;;;;;;11.73;4.97;;;;;;;-146.73;100.00;56421.06;6151917;23;20107;-93
2023/01/28 01:11:33;;;;;;;11.27;4.82;;;;;;;-146.73;100.00;56421.06;6153016;23;20065;-92
2023/01/28 01:13:59;;;;;;;13.90;6.32;;;;;;;-146.73;100.00;56421.06;6151956;23;20009;-93
2023/01/28 01:16:28;;;;;;;13.90;6.55;;;;;;;-146.73;100.00;56421.06;6150205;23;20009;-93
2023/01/28 01:18:58;;;;;;;12.60;5.95;;;;;;;-146.73;100.00;56421.06;6151734;23;20009;-93
2023/01/28 01:21:30;;;;;;;12.77;5.28;;;;;;;-146.73;100.00;56421.06;6178611;23;20017;-92
2023/01/28 01:23:55;;;;;;;11.50;4.57;;;;;;;-146.73;100.00;56421.06;6152712;23;20416;-93
2023/01/28 01:26:26;;;;;;;11.10;4.32;;;;;;;-146.73;100.00;56421.06;6152216;23;20059;-93
2023/01/28 01:28:52;;;;;;;11.13;4.45;;;;;;;-146.73;100.00;56421.06;6152430;23;20337;-93
2023/01/28 01:31:20;;;;;;;11.18;4.70;;;;;;;-146.73;100.00;56421.06;6152694;23;20001;-93
2023/01/28 01:33:47;;;;;;;13.77;5.22;;;;;;;-146.73;100.00;56421.06;6179388;23;19997;-93
2023/01/28 01:36:15;;;;;;;14.60;6.07;;;;;;;-146.73;100.00;56421.06;6151879;23;20023;-91
2023/01/28 01:38:41;;;;;;;14.55;6.70;;;;;;;-146.73;100.00;56421.06;6153256;23;20386;-92
2023/01/28 01:41:08;;;;;;;14.85;6.38;;;;;;;-146.73;100.00;56421.06;6153362;23;20009;-93
2023/01/28 01:43:49;;;;;;;16.52;7.47;;;;;;;-146.73;100.00;56421.06;6152068;23;20024;-92
2023/01/28 01:46:19;;;;;;;16.77;7.15;;;;;;;-146.73;100.00;56421.06;6152676;23;20189;-92
2023/01/28 01:48:45;;;;;;;19.52;8.48;;;;;;;-146.73;100.00;56421.06;6153854;23;20522;-92
2023/01/28 01:51:16;;;;;;;21.13;8.73;;;;;;;-146.73;100.00;56421.06;6154429;23;20005;-92
2023/01/28 01:53:44;;;;;;;16.67;7.63;;;;;;;-146.73;100.00;56421.06;6153646;23;20090;-93
2023/01/28 01:56:15;;;;;;;17.65;8.00;;;;;;;-146.73;100.00;56421.06;6154436;23;20016;-93
2023/01/28 01:58:44;;;;;;;19.55;8.57;;;;;;;-146.73;100.00;56421.06;6181394;23;20009;-93
2023/01/28 02:01:12;;;;;;;19.00;8.73;;;;;;;-146.73;100.00;56421.06;6155013;23;20024;-93
2023/01/28 02:03:47;;;;;;;21.33;9.75;;;;;;;-146.73;100.00;56421.06;6154633;23;20017;-92
2023/01/28 02:06:13;;;;;;;19.08;8.60;;;;;;;-146.73;100.00;56421.06;6154617;23;20032;-92
2023/01/28 02:08:38;;;;;;;22.60;9.23;;;;;;;-146.73;100.00;56421.06;6181132;23;20005;-92
2023/01/28 02:11:07;;;;;;;21.90;9.85;;;;;;;-146.73;100.00;56421.06;6155965;23;20389;-92
2023/01/28 02:13:41;;;;;;;20.20;9.13;;;;;;;-146.73;100.00;56421.06;6183051;23;20466;-92
2023/01/28 02:16:08;;;;;;;20.98;9.35;;;;;;;-146.73;100.00;56421.06;6156042;23;20404;-91
2023/01/28 02:18:34;;;;;;;18.85;8.90;;;;;;;-146.73;100.00;56421.06;6155648;23;20056;-92
2023/01/28 02:21:33;;;;;;;23.13;9.18;;;;;;;-146.73;100.00;56421.06;6156088;23;20012;-92
2023/01/28 02:24:11;;;;;;;19.20;9.13;;;;;;;-146.73;100.00;56421.06;6155838;23;20217;-92
2023/01/28 02:26:44;;;;;;;21.00;9.23;;;;;;;-146.73;100.00;56421.06;6155613;23;20016;-92
2023/01/28 02:29:25;;;;;;;22.38;9.57;;;;;;;-146.73;100.00;56421.06;6156194;23;20017;-92
2023/01/28 02:32:31;;;;;;;24.20;11.02;;;;;;;-146.73;100.00;56421.06;6156226;23;20032;-91
2023/01/28 02:35:06;;;;;;;22.77;10.30;;;;;;;-146.73;100.00;56421.06;6142107;23;20075;-92
2023/01/28 02:37:40;;;;;;;26.65;12.15;;;;;;;-146.73;100.00;56421.06;6155618;23;20016;-92
2023/01/28 02:40:13;;;;;;;29.52;12.73;;;;;;;-146.73;100.00;56421.06;6180079;23;20040;-91
2023/01/28 02:42:40;;;;;;;32.72;13.57;;;;;;;-146.73;100.00;56421.06;6153441;23;20013;-92
2023/01/28 02:45:22;;;;;;;31.08;13.68;;;;;;;-146.73;100.00;56421.06;6152106;23;20269;-93
2023/01/28 02:47:57;;;;;;;31.73;13.55;;;;;;;-146.73;100.00;56421.06;6179876;23;20327;-91
2023/01/28 02:50:36;;;;;;;31.35;13.23;;;;;;;-146.73;100.00;56421.06;6178650;23;20048;-92
2023/01/28 02:56:28;;;;;;;25.35;11.77;;;;;;;-146.73;100.00;56421.06;6179750;23;20079;-94
2023/01/28 02:59:29;;;;;;;28.17;12.15;;;;;;;-146.73;100.00;56421.06;6150885;23;20470;-92
2023/01/28 03:04:37;;;;;;;27.20;11.80;;;;;;;-146.73;100.00;56421.06;6177018;23;20032;-90
2023/01/28 03:07:05;;;;;;;25.52;10.73;;;;;;;-146.73;100.00;56421.06;6174346;23;20021;-91
2023/01/28 03:09:32;;;;;;;27.10;11.35;;;;;;;-146.73;100.00;56421.06;6149620;23;20500;-90
2023/01/28 03:37:59;;;;;;;23.35;9.57;;;;;;;-146.73;100.00;56421.06;6175210;23;20028;-90
2023/01/28 03:40:24;;;;;;;28.80;10.55;;;;;;;-146.73;100.00;56421.06;6151357;23;20012;-90
2023/01/28 03:42:53;;;;;;;22.67;9.60;;;;;;;-146.73;100.00;56421.06;6150962;23;20012;-89
2023/01/28 03:45:20;;;;;;;22.08;9.50;;;;;;;-146.73;100.00;56421.06;6178172;23;20009;-90
2023/01/28 03:47:45;;;;;;;23.27;9.80;;;;;;;-146.73;100.00;56421.06;6149667;23;20096;-90
2023/01/28 03:50:11;;;;;;;27.15;9.35;;;;;;;-146.73;100.00;56421.06;6149461;23;20099;-91
2023/01/28 03:52:37;;;;;;;22.98;10.40;;;;;;;-146.73;100.00;56421.06;6150774;23;20019;-90
2023/01/28 03:55:12;;;;;;;26.88;10.85;;;;;;;-146.73;100.00;56421.06;6149478;23;20122;-90
2023/01/28 03:57:38;;;;;;;22.10;9.35;;;;;;;-146.73;100.00;56421.06;6149462;23;20521;-89
2023/01/28 04:00:04;;;;;;;22.05;10.00;;;;;;;-146.73;100.00;56421.06;6149013;23;20399;-89
2023/01/28 04:02:30;;;;;;;21.58;9.52;;;;;;;-146.73;100.00;56421.06;6148337;23;20075;-88
2023/01/28 04:04:57;;;;;;;23.02;10.25;;;;;;;-146.73;100.00;56421.06;6176537;23;20012;-89
2023/01/28 04:07:23;;;;;;;20.02;8.95;;;;;;;-146.73;100.00;56421.06;6147861;23;20104;-88
2023/01/28 04:09:48;;;;;;;20.50;8.63;;;;;;;-146.73;100.00;56421.06;6150121;23;20028;-90
2023/01/28 04:12:14;;;;;;;18.40;7.85;;;;;;;-146.73;100.00;56421.06;6148344;23;20020;-87
2023/01/28 04:14:39;;;;;;;19.83;7.80;;;;;;;-146.73;100.00;56421.06;6149513;23;20001;-88
2023/01/28 04:17:06;;;;;;;16.90;7.78;;;;;;;-146.73;100.00;56421.06;6148494;23;20087;-89
2023/01/28 04:19:36;;;;;;;19.83;7.70;;;;;;;-146.73;100.00;56421.06;6174753;23;20004;-89
2023/01/28 04:22:06;;;;;;;16.58;7.03;;;;;;;-146.73;100.00;56421.06;6174000;23;20021;-88
2023/01/28 04:24:32;;;;;;;18.30;7.38;;;;;;;-146.73;100.00;56421.06;6175816;23;20013;-89
2023/01/28 04:26:57;;;;;;;17.33;6.57;;;;;;;-146.73;100.00;56421.06;6176129;23;20028;-89
2023/01/28 04:29:23;;;;;;;13.32;5.28;;;;;;;-146.73;100.00;56421.06;6148967;23;20043;-89
2023/01/28 04:31:48;;;;;;;14.80;5.80;;;;;;;-146.73;100.00;56421.06;6149846;23;20648;-89
2023/01/28 04:34:14;;;;;;;13.60;5.88;;;;;;;-146.73;100.00;56421.06;6148924;23;20013;-88
2023/01/28 04:36:39;;;;;;;11.77;5.03;;;;;;;-146.73;100.00;56421.06;6149225;23;20023;-90
2023/01/28 04:39:05;;;;;;;11.90;4.60;;;;;;;-146.73;100.00;56421.06;6150317;23;20087;-88
2023/01/28 04:41:30;;;;;;;14.00;5.30;;;;;;;-146.73;100.00;56421.06;6149005;23;20790;-89
2023/01/28 04:43:55;;;;;;;13.80;4.90;;;;;;;-146.73;100.00;56421.06;6150424;23;20335;-89
2023/01/28 04:46:21;;;;;;;11.52;4.65;;;;;;;-146.73;100.00;56421.06;6176530;23;20009;-89
2023/01/28 04:48:46;;;;;;;16.70;5.10;;;;;;;-146.73;100.00;56421.06;6150201;23;20008;-89
2023/01/28 04:51:12;;;;;;;12.25;4.38;;;;;;;-146.73;100.00;56421.06;6149271;23;20013;-89
2023/01/28 04:53:37;;;;;;;12.52;4.50;;;;;;;-146.73;100.00;56421.06;6150064;23;20005;-90
2023/01/28 04:56:03;;;;;;;13.20;4.90;;;;;;;-146.73;100.00;56421.06;6149188;23;20009;-89
2023/01/28 04:58:28;;;;;;;12.48;4.80;;;;;;;-146.73;100.00;56421.06;6150358;23;20020;-90
2023/01/28 05:00:55;;;;;;;14.25;5.20;;;;;;;-146.73;100.00;56421.06;6175238;23;20009;-89
2023/01/28 05:03:21;;;;;;;15.30;5.63;;;;;;;-146.73;100.00;56421.06;6148389;23;20035;-89
2023/01/28 05:05:47;;;;;;;12.98;5.22;;;;;;;-146.73;100.00;56421.06;6175059;23;20009;-88
2023/01/28 05:08:12;;;;;;;17.23;6.18;;;;;;;-146.73;100.00;56421.06;6148541;23;20016;-90
2023/01/28 05:10:39;;;;;;;14.70;6.13;;;;;;;-146.73;100.00;56421.06;6176784;23;20474;-90
2023/01/28 05:13:05;;;;;;;16.42;6.40;;;;;;;-146.73;100.00;56421.06;6176494;23;20036;-88
2023/01/28 05:15:31;;;;;;;15.68;6.78;;;;;;;-146.73;100.00;56421.06;6148809;23;20354;-89
2023/01/28 05:17:57;;;;;;;15.43;6.15;;;;;;;-146.73;100.00;56421.06;6172723;23;20009;-89
2023/01/28 05:20:23;;;;;;;16.58;6.22;;;;;;;-146.73;100.00;56421.06;6148766;23;20349;-89
2023/01/28 05:22:48;;;;;;;16.77;6.75;;;;;;;-146.73;100.00;56421.06;6149544;23;20012;-89
2023/01/28 05:25:14;;;;;;;15.40;6.68;;;;;;;-146.73;100.00;56421.06;6152564;23;20159;-89
2023/01/28 05:27:39;;;;;;;17.88;6.72;;;;;;;-146.73;100.00;56421.06;6151853;23;20017;-89
2023/01/28 05:30:05;;;;;;;20.35;6.82;;;;;;;-146.73;100.00;56421.06;6152024;23;20439;-89
2023/01/28 05:32:31;;;;;;;19.20;6.38;;;;;;;-146.73;100.00;56421.06;6177451;23;20017;-89
2023/01/28 05:34:56;;;;;;;15.40;6.60;;;;;;;-146.73;100.00;56421.06;6178936;23;20088;-89
2023/01/28 05:37:22;;;;;;;17.73;6.80;;;;;;;-146.73;100.00;56421.06;6150710;23;20009;-89
2023/01/28 05:39:47;;;;;;;19.85;7.43;;;;;;;-146.73;100.00;56421.06;6178500;23;20734;-89
2023/01/28 05:42:14;;;;;;;18.70;7.13;;;;;;;-146.73;100.00;56421.06;6152089;23;20047;-90
2023/01/28 05:44:40;;;;;;;16.85;7.72;;;;;;;-146.73;100.00;56421.06;6152721;23;20074;-89
2023/01/28 05:47:05;;;;;;;16.48;8.05;;;;;;;-146.73;100.00;56421.06;6178925;23;20017;-89
2023/01/28 05:49:31;;;;;;;19.77;7.75;;;;;;;-146.73;100.00;56421.06;6151911;23;20674;-89
2023/01/28 05:51:56;;;;;;;20.25;8.90;;;;;;;-146.73;100.00;56421.06;6151777;23;20019;-89
2023/01/28 05:54:21;;;;;;;20.48;7.75;;;;;;;-146.73;100.00;56421.06;6151833;23;20001;-89
2023/01/28 05:56:47;;;;;;;20.90;7.97;;;;;;;-146.73;100.00;56421.06;6179388;23;20005;-89
2023/01/28 05:59:13;;;;;;;22.85;8.65;;;;;;;-146.73;100.00;56421.06;6150454;23;20024;-89
2023/01/28 06:01:38;;;;;;;17.48;8.13;;;;;;;-146.73;100.00;56421.06;6150512;23;20402;-89
2023/01/28 06:04:04;;;;;;;19.58;8.40;;;;;;;-146.73;100.00;56421.06;6176961;23;20021;-89
2023/01/28 06:06:29;;;;;;;20.00;8.98;;;;;;;-146.73;100.00;56421.06;6177699;23;20013;-89
2023/01/28 06:08:55;;;;;;;21.00;8.63;;;;;;;-146.73;100.00;56421.06;6179103;23;20005;-89
2023/01/28 06:11:21;;;;;;;19.88;8.40;;;;;;;-146.73;100.00;56421.06;6152106;23;20105;-89
2023/01/28 06:13:47;;;;;;;60.83;11.90;;;;;;;-146.73;100.00;56421.06;6177716;23;20012;-89
2023/01/28 06:16:12;;;;;;;125.70;16.33;;;;;;;-146.73;100.00;56421.06;6151833;23;20010;-88
2023/01/28 06:18:40;;;;;;;22.42;10.27;;;;;;;-146.73;100.00;56421.06;6178217;23;20015;-89
2023/01/28 06:21:05;;;;;;;22.55;10.00;;;;;;;-146.73;100.00;56421.06;6151023;23;20061;-89
2023/01/28 06:23:31;;;;;;;30.20;10.50;;;;;;;-146.73;100.00;56421.06;6150621;23;20032;-89
2023/01/28 06:25:56;;;;;;;31.70;9.18;;;;;;;-146.73;100.00;56421.06;6149995;23;20013;-89
2023/01/28 06:28:23;;;;;;;35.00;10.55;;;;;;;-146.73;100.00;56421.06;6151129;23;20017;-89
2023/01/28 06:30:49;;;;;;;23.70;9.52;;;;;;;-146.73;100.00;56421.06;6150636;23;20480;-89
2023/01/28 06:33:14;;;;;;;23.55;8.27;;;;;;;-146.73;100.00;56421.06;6176967;23;19997;-89
2023/01/28 06:35:41;;;;;;;24.40;8.85;;;;;;;-146.73;100.00;56421.06;6150337;23;20083;-91
2023/01/28 06:38:07;;;;;;;20.63;8.18;;;;;;;-146.73;100.00;56421.06;6150024;23;20100;-91
2023/01/28 06:40:32;;;;;;;21.02;7.50;;;;;;;-146.73;100.00;56421.06;6151130;23;20048;-89
2023/01/28 06:42:58;;;;;;;17.98;6.90;;;;;;;-146.73;100.00;56421.06;6150752;23;20461;-89
2023/01/28 06:45:24;;;;;;;16.30;5.75;;;;;;;-146.73;100.00;56421.06;6148924;23;20399;-89
2023/01/28 06:47:49;;;;;;;17.08;6.03;;;;;;;-146.73;100.00;56421.06;6151223;23;20328;-90
2023/01/28 06:50:15;;;;;;;15.55;5.07;;;;;;;-146.73;100.00;56421.06;6175890;23;20532;-91
2023/01/28 06:52:41;;;;;;;14.13;4.78;;;;;;;-146.73;100.00;56421.06;6151362;23;20057;-90
2023/01/28 06:55:07;;;;;;;10.55;4.05;;;;;;;-146.73;100.00;56421.06;6176103;23;20484;-90
2023/01/28 06:57:32;;;;;;;13.15;4.38;;;;;;;-146.73;100.00;56421.06;6173545;23;20013;-90
2023/01/28 06:59:58;;;;;;;12.45;4.00;;;;;;;-146.73;100.00;56421.06;6150422;23;20009;-90
2023/01/28 07:02:23;;;;;;;11.18;4.32;;;;;;;-146.73;100.00;56421.06;6176938;23;20035;-90
2023/01/28 07:04:48;;;;;;;11.85;4.30;;;;;;;-146.73;100.00;56421.06;6149453;23;20044;-90
2023/01/28 07:07:18;;;;;;;15.48;5.07;;;;;;;-146.73;100.00;56421.06;6151156;23;20028;-90
2023/01/28 07:09:43;;;;;;;23.52;4.55;;;;;;;-146.73;100.00;56421.06;6176215;23;20017;-90
2023/01/28 07:12:08;;;;;;;22.35;5.07;;;;;;;-146.73;100.00;56421.06;6151588;23;20321;-91
2023/01/28 07:14:34;;;;;;;14.85;4.57;;;;;;;-146.73;100.00;56421.06;6149463;23;20048;-89
2023/01/28 07:16:59;;;;;;;13.15;5.25;;;;;;;-146.73;100.00;56421.06;6148115;23;20477;-89
2023/01/28 07:19:25;;;;;;;69.20;7.88;;;;;;;-146.73;100.00;56421.06;6145674;23;20012;-89
2023/01/28 07:21:57;;;;;;;11.65;4.15;;;;;;;-146.73;100.00;56421.06;6149935;23;20090;-89
2023/01/28 07:24:22;;;;;;;12.98;4.03;;;;;;;-146.73;100.00;56421.06;6150710;23;20489;-89
2023/01/28 07:26:48;;;;;;;22.20;4.88;;;;;;;-146.73;100.00;56421.06;6151141;23;20009;-89
2023/01/28 07:29:13;;;;;;;15.07;4.72;;;;;;;-146.73;100.00;56421.06;6150318;23;20001;-88
2023/01/28 07:31:38;;;;;;;15.60;3.78;;;;;;;-146.73;100.00;56421.06;6150471;23;20056;-89
2023/01/28 07:34:04;;;;;;;11.45;3.40;;;;;;;-146.73;100.00;56421.06;6176570;23;20004;-90
2023/01/28 07:36:30;;;;;;;11.88;3.90;;;;;;;-146.73;100.00;56421.06;6150928;23;20013;-90
2023/01/28 07:38:55;;;;;;;13.20;3.70;;;;;;;-146.73;100.00;56421.06;6175463;23;20020;-90
2023/01/28 07:41:21;;;;;;;12.70;3.53;;;;;;;-146.73;100.00;56421.06;6147687;23;20724;-90
2023/01/28 07:43:46;;;;;;;12.80;3.85;;;;;;;-146.73;100.00;56421.06;6174507;23;20005;-89
2023/01/28 07:46:12;;;;;;;12.80;3.60;;;;;;;-146.73;100.00;56421.06;6148502;23;20013;-89
2023/01/28 07:48:37;;;;;;;13.02;3.47;;;;;;;-146.73;100.00;56421.06;6147693;23;20013;-88
2023/01/28 07:51:03;;;;;;;11.65;3.30;;;;;;;-146.73;100.00;56421.06;6148993;23;20375;-89
2023/01/28 07:53:28;;;;;;;13.70;4.03;;;;;;;-146.73;100.00;56421.06;6148672;23;20032;-89
2023/01/28 07:56:00;;;;;;;15.00;4.10;;;;;;;-146.73;100.00;56421.06;6149088;23;20021;-90
2023/01/28 07:58:26;;;;;;;18.52;4.18;;;;;;;-146.73;100.00;56421.06;6149422;23;20023;-90
2023/01/28 08:00:55;;;;;;;18.73;4.47;;;;;;;-146.73;100.00;56421.06;6174001;23;20005;-90
2023/01/28 08:03:21;;;;;;;43.25;5.28;;;;;;;-146.73;100.00;56421.06;6149917;23;20410;-92
2023/01/28 08:05:48;;;;;;;10.85;3.67;;;;;;;-146.73;100.00;56421.06;6177017;23;20009;-91
2023/01/28 08:08:15;;;;;;;13.38;3.90;;;;;;;-146.73;100.00;56421.06;6152793;23;20090;-91
2023/01/28 08:10:42;;;;;;;13.23;3.80;;;;;;;-146.73;100.00;56421.06;6152923;23;20032;-93
2023/01/28 08:13:09;;;;;;;14.57;4.20;;;;;;;-146.73;100.00;56421.06;6153731;23;20063;-93
2023/01/28 08:15:37;;;;;;;17.90;4.28;;;;;;;-146.73;100.00;56421.06;6153811;23;20112;-92
2023/01/28 08:18:05;;;;;;;11.38;3.55;;;;;;;-146.73;100.00;56421.06;6179158;23;20083;-92
2023/01/28 08:20:30;;;;;;;12.95;3.80;;;;;;;-146.73;100.00;56421.06;6178277;23;20008;-93
2023/01/28 08:23:10;;;;;;;27.92;5.28;;;;;;;-146.73;100.00;56421.06;6177157;23;20072;-93
2023/01/28 08:25:36;;;;;;;11.90;4.10;;;;;;;-146.73;100.00;56421.06;6152842;23;20398;-94
2023/01/28 08:28:06;;;;;;;14.10;3.97;;;;;;;-146.73;100.00;56421.06;6154221;23;20012;-92
2023/01/28 08:30:32;;;;;;;67.18;6.68;;;;;;;-146.73;100.00;56421.06;6155025;23;20132;-93
2023/01/28 08:32:59;;;;;;;12.88;3.63;;;;;;;-146.73;100.00;56421.06;6153575;23;20040;-91
2023/01/28 08:35:25;;;;;;;13.70;3.95;;;;;;;-146.73;100.00;56421.06;6154763;23;20040;-93
2023/01/28 08:37:51;;;;;;;15.55;3.95;;;;;;;-146.73;100.00;56421.06;6180723;23;20009;-92
2023/01/28 08:40:17;;;;;;;13.23;3.60;;;;;;;-146.73;100.00;56421.06;6155531;23;20111;-92
2023/01/28 08:42:49;;;;;;;12.30;3.60;;;;;;;-146.73;100.00;56421.06;6180496;23;20099;-91
2023/01/28 08:45:15;;;;;;;11.60;3.33;;;;;;;-146.73;100.00;56421.06;6182444;23;20015;-94
2023/01/28 08:48:06;;;;;;;18.13;3.80;;;;;;;-146.73;100.00;56421.06;6154994;23;20750;-91
2023/01/28 08:50:34;;;;;;;10.00;3.20;;;;;;;-146.73;100.00;56421.06;6155316;23;20013;-91
2023/01/28 08:53:06;;;;;;;12.55;3.10;;;;;;;-146.73;100.00;56421.06;6181044;23;20051;-93
2023/01/28 08:55:33;;;;;;;11.25;4.35;;;;;;;-146.73;100.00;56421.06;6180822;23;20000;-92
2023/01/28 08:58:02;;;;;;;10.35;4.10;;;;;;;-146.73;100.00;56421.06;6179483;23;20020;-93
2023/01/28 09:00:27;;;;;;;9.80;3.40;;;;;;;-146.73;100.00;56421.06;6156777;23;20009;-92
2023/01/28 09:02:53;;;;;;;9.63;3.38;;;;;;;-146.73;100.00;56421.06;6156648;23;20336;-92
2023/01/28 09:05:19;;;;;;;9.38;3.30;;;;;;;-146.73;100.00;56421.06;6183954;23;20029;-93
2023/01/28 09:07:45;;;;;;;10.73;2.92;;;;;;;-146.73;100.00;56421.06;6183111;23;20001;-92
2023/01/28 09:10:14;;;;;;;10.25;2.83;;;;;;;-146.73;100.00;56421.06;6157150;23;20092;-92
2023/01/28 09:12:41;;;;;;;9.93;2.78;;;;;;;-146.73;100.00;56421.06;6182608;23;20333;-93
2023/01/28 09:15:07;;;;;;;7.30;2.20;;;;;;;-146.73;100.00;56421.06;6156314;23;20024;-94
2023/01/28 09:17:32;;;;;;;9.48;2.50;;;;;;;-146.73;100.00;56421.06;6156260;23;20008;-92
2023/01/28 09:19:58;;;;;;;8.55;2.72;;;;;;;-146.73;100.00;56421.06;6155622;23;20729;-91
2023/01/28 09:22:23;;;;;;;9.02;2.90;;;;;;;-146.73;100.00;56421.06;6155872;23;20022;-92
2023/01/28 09:24:49;;;;;;;8.73;2.60;;;;;;;-146.73;100.00;56421.06;6183254;23;20085;-93
2023/01/28 09:27:14;;;;;;;10.80;2.70;;;;;;;-146.73;100.00;56421.06;6157305;23;20745;-91
2023/01/28 09:29:40;;;;;;;8.43;2.80;;;;;;;-146.73;100.00;56421.06;6183166;23;20016;-92
2023/01/28 09:32:06;;;;;;;9.57;2.50;;;;;;;-146.73;100.00;56421.06;6157215;23;20019;-92
2023/01/28 09:34:32;;;;;;;8.20;2.55;;;;;;;-146.73;100.00;56421.06;6157572;23;20453;-93
2023/01/28 09:36:58;;;;;;;9.68;2.40;;;;;;;-146.73;100.00;56421.06;6156592;23;20013;-91
2023/01/28 09:39:24;;;;;;;7.18;2.08;;;;;;;-146.73;100.00;56421.06;6156838;23;20052;-90
2023/01/28 09:42:16;;;;;;;8.68;2.33;;;;;;;-146.73;100.00;56421.06;6157920;23;20390;-94
2023/01/28 09:45:01;;;;;;;13.38;2.72;;;;;;;-146.73;100.00;56421.06;6157748;23;20021;-93
2023/01/28 09:47:58;;;;;;;7.50;2.10;;;;;;;-146.73;100.00;56421.06;6157003;23;20020;-92
2023/01/28 09:50:31;;;;;;;8.98;2.10;;;;;;;-146.73;100.00;56421.06;6181604;23;20063;-92
2023/01/28 09:53:01;;;;;;;;;;;;;;;-146.73;100.00;56421.06;6157660;23;20005;-93
2023/01/28 09:55:34;;;;;;;6.80;2.10;;;;;;;-146.73;100.00;56421.06;6157263;23;19915;-92
2023/01/28 09:58:00;;;;;;;;;;;;;;;-146.73;100.00;56421.06;6157867;23;20013;-91
2023/01/28 10:00:35;;;;;;;6.57;1.90;;;;;;;-146.73;100.00;56421.06;6156625;23;19919;-93
2023/01/28 10:03:35;;;;;;;9.48;2.10;;;;;;;-146.73;100.00;56421.06;6156127;23;20028;-91
2023/01/28 10:06:03;;;;;;;7.78;2.10;;;;;;;-146.73;100.00;56421.06;6156908;23;20104;-93
2023/01/28 10:09:08;;;;;;;7.32;1.92;;;;;;;-146.73;100.00;56421.06;6155716;23;20019;-91
2023/01/28 10:12:14;;;;;;;6.97;2.30;;;;;;;-146.73;100.00;56421.06;6154448;23;20083;-91
2023/01/28 10:15:14;;;;;;;8.10;2.78;;;;;;;-146.73;100.00;56421.06;6182055;23;20710;-93
2023/01/28 10:17:46;;;;;;;12.20;4.85;;;;;;;-146.73;100.00;56421.06;6155949;23;20009;-93
2023/01/28 10:20:11;;;;;;;11.20;3.85;;;;;;;-146.73;100.00;56421.06;6179106;23;20043;-92
2023/01/28 10:22:55;;;;;;;10.93;4.18;;;;;;;-146.73;100.00;56421.06;6153575;23;20430;-92
2023/01/28 10:25:28;;;;;;;20.00;7.22;;;;;;;-146.73;100.00;56421.06;6152103;23;20044;-93
2023/01/28 10:27:53;;;;;;;;;;;;;;;-146.73;100.00;56421.06;6154888;23;20633;-91
2023/01/28 10:30:27;;;;;;;7.97;2.10;;;;;;;-146.73;100.00;56421.06;6151544;23;19940;-93
2023/01/28 10:33:16;;;;;;;6.72;2.00;;;;;;;-146.73;100.00;56421.06;6153957;23;20005;-94
2023/01/28 10:35:42;;;;;;;9.38;2.10;;;;;;;-146.73;100.00;56421.06;6153571;23;20007;-92
2023/01/28 10:38:13;;;;;;;7.22;1.95;;;;;;;-146.73;100.00;56421.06;6153877;23;20088;-92
2023/01/28 10:40:41;;;;;;;8.27;2.03;;;;;;;-146.73;100.00;56421.06;6152731;23;20005;-91
2023/01/28 10:43:07;;;;;;;6.43;1.70;;;;;;;-146.73;100.00;56421.06;6180151;23;20084;-93
2023/01/28 10:45:42;;;;;;;7.18;1.83;;;;;;;-146.73;100.00;56421.06;6182150;23;20574;-92
2023/01/28 10:48:25;;;;;;;6.32;1.77;;;;;;;-146.73;100.00;56421.06;6154328;23;20016;-93
2023/01/28 10:50:55;;;;;;;6.78;1.70;;;;;;;-146.73;100.00;56421.06;6154186;23;20031;-91
2023/01/28 10:53:38;;;;;;;6.85;1.63;;;;;;;-146.73;100.00;56421.06;6153738;23;20036;-92
2023/01/28 10:56:17;;;;;;;7.75;2.20;;;;;;;-146.73;100.00;56421.06;6153425;23;20431;-92
2023/01/28 10:58:57;;;;;;;6.18;1.73;;;;;;;-146.73;100.00;56421.06;6153478;23;20545;-92
2023/01/28 11:01:22;;;;;;;6.43;1.80;;;;;;;-146.73;100.00;56421.06;6154639;23;20065;-94
2023/01/28 11:03:56;;;;;;;7.18;1.70;;;;;;;-146.73;100.00;56421.06;6153645;23;20021;-92
2023/01/28 11:06:27;;;;;;;6.65;1.80;;;;;;;-146.73;100.00;56421.06;6154328;23;20016;-93
2023/01/28 11:08:53;;;;;;;7.65;1.80;;;;;;;-146.73;100.00;56421.06;6154634;23;20013;-93
2023/01/28 11:11:39;;;;;;;6.50;1.45;;;;;;;-146.73;100.00;56421.06;6155080;23;20397;-92
2023/01/28 11:14:20;;;;;;;5.40;1.40;;;;;;;-146.73;100.00;56421.06;6153481;23;20009;-92
2023/01/28 11:16:46;;;;;;;6.68;1.70;;;;;;;-146.73;100.00;56421.06;6151813;23;20017;-92
2023/01/28 11:19:11;;;;;;;5.93;1.50;;;;;;;-146.73;100.00;56421.06;6151916;23;20064;-91
2023/01/28 11:21:38;;;;;;;6.53;1.70;;;;;;;-146.73;100.00;56421.06;6151376;23;20451;-91
2023/01/28 11:24:21;;;;;;;7.43;1.98;;;;;;;-146.73;100.00;56421.06;6153183;23;20035;-91
2023/01/28 11:26:52;;;;;;;8.33;1.70;;;;;;;-146.73;100.00;56421.06;6150092;23;20092;-91
2023/01/28 11:29:38;;;;;;;8.13;2.10;;;;;;;-146.73;100.00;56421.06;6151818;23;20741;-91
2023/01/28 11:32:06;;;;;;;7.00;1.88;;;;;;;-146.73;100.00;56421.06;6148831;23;20373;-91
2023/01/28 11:34:33;;;;;;;7.35;2.40;;;;;;;-146.73;100.00;56421.06;6152944;23;20017;-92
2023/01/28 11:37:17;;;;;;;8.27;2.80;;;;;;;-146.73;100.00;56421.06;6151833;23;20082;-92
2023/01/28 11:39:43;;;;;;;;;;;;;;;-146.73;100.00;56421.06;6150684;23;20017;-92
2023/01/28 11:42:10;;;;;;;8.30;3.13;;;;;;;-146.73;100.00;56421.06;6151396;23;20042;-93
2023/01/28 11:44:38;;;;;;;8.75;3.20;;;;;;;-146.73;100.00;56421.06;6178220;23;20174;-93